AIC2BB VABB-VIDP
Flight info
| Callsign | AIC2BB |
|---|---|
| Flight time | N/A |
| Altitude | 39000 |
| Route | ANOLI2A ISRIS Q1 UKASO UKASO6G |
| Aircraft | A20N/M-SDE2E3FGHIRWXY/LB1 |
Departure
| Time | 2026-05-05 14:05 |
|---|---|
| Airport | Chhatrapati Shivaji Maharaj International Airport (VABB) |
Arrival
| Time | N/A |
|---|---|
| Airport | Indira Gandhi International Airport (VIDP) |
| Time | Latitude | Longitude | Altitude | Speed | Heading |
|---|---|---|---|---|---|
| 2026-05-05 13:48 | 19.09475 | 72.87592 | 32 ft | 0 kts | 34° |
| 2026-05-05 13:56 | 19.09464 | 72.87585 | 32 ft | 2 kts | 31° |
| 2026-05-05 13:56 | 19.09454 | 72.87579 | 32 ft | 0 kts | 26° |
| 2026-05-05 13:58 | 19.09451 | 72.87577 | 32 ft | 2 kts | 23° |
| 2026-05-05 13:58 | 19.09436 | 72.87569 | 32 ft | 2 kts | 30° |
| 2026-05-05 13:59 | 19.09407 | 72.87552 | 31 ft | 2 kts | 30° |
| 2026-05-05 13:59 | 19.09393 | 72.87543 | 31 ft | 2 kts | 41° |
| 2026-05-05 14:00 | 19.09390 | 72.87514 | 30 ft | 2 kts | 133° |
| 2026-05-05 14:00 | 19.09397 | 72.87507 | 33 ft | 1 kts | 129° |
| 2026-05-05 14:00 | 19.09397 | 72.87506 | 33 ft | 0 kts | 129° |
| 2026-05-05 14:01 | 19.09396 | 72.87508 | 33 ft | 2 kts | 129° |
| 2026-05-05 14:02 | 19.09380 | 72.87528 | 32 ft | 5 kts | 129° |
| 2026-05-05 14:02 | 19.09347 | 72.87570 | 33 ft | 9 kts | 130° |
| 2026-05-05 14:02 | 19.09297 | 72.87632 | 33 ft | 13 kts | 131° |
| 2026-05-05 14:02 | 19.09211 | 72.87672 | 33 ft | 15 kts | 178° |
| 2026-05-05 14:03 | 19.09144 | 72.87735 | 33 ft | 16 kts | 91° |
| 2026-05-05 14:03 | 19.09088 | 72.87805 | 33 ft | 6 kts | 176° |
| 2026-05-05 14:03 | 19.09035 | 72.87806 | 32 ft | 9 kts | 179° |
| 2026-05-05 14:03 | 19.08958 | 72.87806 | 32 ft | 13 kts | 181° |
| 2026-05-05 14:04 | 19.08889 | 72.87752 | 32 ft | 14 kts | 253° |
| 2026-05-05 14:04 | 19.08886 | 72.87714 | 32 ft | 0 kts | 267° |
| 2026-05-05 14:04 | 19.08885 | 72.87676 | 32 ft | 24 kts | 269° |
| 2026-05-05 14:04 | 19.08879 | 72.87247 | 35 ft | 89 kts | 270° |
| 2026-05-05 14:05 | 19.08866 | 72.86411 | 33 ft | 139 kts | 269° |
| 2026-05-05 14:05 | 19.08854 | 72.85393 | 551 ft | 134 kts | 269° |
| 2026-05-05 14:05 | 19.08842 | 72.84342 | 889 ft | 152 kts | 270° |
| 2026-05-05 14:05 | 19.08829 | 72.83164 | 1319 ft | 160 kts | 269° |
| 2026-05-05 14:06 | 19.08815 | 72.82024 | 1925 ft | 162 kts | 269° |